createdAt,value
2019-04-16T00:01:03.635Z,101247.00
2019-04-16T00:03:33.278Z,101241.00
2019-04-16T00:06:04.359Z,101238.00
2019-04-16T00:08:35.438Z,101236.00
2019-04-16T00:11:09.668Z,101241.00
2019-04-16T00:13:57.207Z,101232.00
2019-04-16T00:16:26.698Z,101237.00
2019-04-16T00:18:57.860Z,101227.00
2019-04-16T00:21:31.674Z,101232.00
2019-04-16T00:24:18.155Z,101225.00
2019-04-16T00:26:46.746Z,101231.00
2019-04-16T00:29:16.203Z,101218.00
2019-04-16T00:31:47.294Z,101217.00
2019-04-16T00:34:16.752Z,101215.00
2019-04-16T00:36:48.663Z,101214.00
2019-04-16T00:39:17.380Z,101219.00
2019-04-16T00:41:46.859Z,101224.00
2019-04-16T00:44:16.376Z,101219.00
2019-04-16T00:46:45.876Z,101221.00
2019-04-16T00:49:15.605Z,101215.00
2019-04-16T00:51:45.496Z,101222.00
2019-04-16T00:54:14.947Z,101220.00
2019-04-16T00:56:46.752Z,101219.00
2019-04-16T00:59:15.594Z,101215.00
2019-04-16T01:01:45.114Z,101208.00
2019-04-16T01:04:14.602Z,101223.00
2019-04-16T01:06:44.047Z,101218.00
2019-04-16T01:09:13.497Z,101209.00
2019-04-16T01:11:42.973Z,101216.00
2019-04-16T01:14:12.426Z,101212.00
2019-04-16T01:16:41.862Z,101227.00
2019-04-16T01:19:11.354Z,101230.00
2019-04-16T01:21:44.427Z,101246.00
2019-04-16T01:24:12.025Z,101237.00
2019-04-16T01:26:41.486Z,101236.00
2019-04-16T01:29:17.211Z,101223.00
2019-04-16T01:31:54.069Z,101236.00
2019-04-16T01:34:37.021Z,101236.00
2019-04-16T01:37:25.792Z,101220.00
2019-04-16T01:39:58.917Z,101233.00
2019-04-16T01:42:28.467Z,101222.00
2019-04-16T01:44:59.924Z,101216.00
2019-04-16T01:47:29.124Z,101211.00
2019-04-16T01:49:58.591Z,101210.00
2019-04-16T01:52:28.046Z,101216.00
2019-04-16T01:54:57.501Z,101215.00
2019-04-16T01:57:28.346Z,101212.00
2019-04-16T01:59:58.153Z,101207.00
2019-04-16T02:02:27.670Z,101211.00
2019-04-16T02:04:57.153Z,101211.00
2019-04-16T02:07:27.972Z,101214.00
2019-04-16T02:09:57.754Z,101227.00
2019-04-16T02:12:27.279Z,101238.00
2019-04-16T02:14:56.715Z,101212.00
2019-04-16T02:17:26.970Z,101229.00
2019-04-16T02:19:57.308Z,101244.00
2019-04-16T02:22:26.759Z,101251.00
2019-04-16T02:24:56.233Z,101249.00
2019-04-16T02:27:26.233Z,101245.00
2019-04-16T02:29:58.588Z,101228.00
2019-04-16T02:32:27.771Z,101236.00
2019-04-16T02:34:57.272Z,101242.00
2019-04-16T02:37:26.734Z,101235.00
2019-04-16T02:39:56.153Z,101239.00
2019-04-16T02:42:30.754Z,101240.00
2019-04-16T02:44:56.782Z,101250.00
2019-04-16T02:47:26.306Z,101248.00
2019-04-16T02:49:57.755Z,101247.00
2019-04-16T02:52:31.580Z,101226.00
2019-04-16T02:55:19.147Z,101246.00
2019-04-16T02:58:05.536Z,101227.00
2019-04-16T03:00:52.694Z,101223.00
2019-04-16T03:03:26.772Z,101241.00
2019-04-16T03:06:00.673Z,101239.00
2019-04-16T03:08:28.534Z,101231.00
2019-04-16T03:10:58.772Z,101241.00
2019-04-16T03:13:28.775Z,101234.00
2019-04-16T03:16:06.350Z,101235.00
2019-04-16T03:18:38.776Z,101239.00
2019-04-16T03:21:08.227Z,101230.00
2019-04-16T03:23:37.862Z,101226.00
2019-04-16T03:26:07.442Z,101229.00
2019-04-16T03:28:36.889Z,101230.00
2019-04-16T03:31:08.740Z,101233.00
2019-04-16T03:33:37.543Z,101232.00
2019-04-16T03:36:06.993Z,101240.00
2019-04-16T03:38:38.709Z,101233.00
2019-04-16T03:41:07.743Z,101234.00
2019-04-16T03:43:37.195Z,101234.00
2019-04-16T03:46:06.673Z,101239.00
2019-04-16T03:48:37.878Z,101240.00
2019-04-16T03:51:07.316Z,101232.00
2019-04-16T03:53:36.772Z,101240.00
2019-04-16T03:56:06.251Z,101238.00
2019-04-16T03:58:38.525Z,101235.00
2019-04-16T04:01:07.023Z,101247.00
2019-04-16T04:03:36.535Z,101237.00
2019-04-16T04:06:06.857Z,101245.00
2019-04-16T04:08:37.225Z,101246.00
2019-04-16T04:11:10.158Z,101242.00
2019-04-16T04:13:37.886Z,101244.00
2019-04-16T04:16:07.393Z,101238.00
2019-04-16T04:18:36.939Z,101245.00
2019-04-16T04:21:06.387Z,101236.00
2019-04-16T04:23:35.848Z,101247.00
2019-04-16T04:26:08.300Z,101245.00
2019-04-16T04:28:36.572Z,101250.00
2019-04-16T04:31:06.019Z,101259.00
2019-04-16T04:33:41.597Z,101264.00
2019-04-16T04:36:10.708Z,101263.00
2019-04-16T04:38:40.897Z,101263.00
2019-04-16T04:41:10.535Z,101275.00
2019-04-16T04:43:40.043Z,101278.00
2019-04-16T04:46:13.508Z,101259.00
2019-04-16T04:48:40.696Z,101260.00
2019-04-16T04:51:10.163Z,101267.00
2019-04-16T04:53:39.680Z,101272.00
2019-04-16T04:56:09.636Z,101282.00
2019-04-16T04:58:39.101Z,101272.00
2019-04-16T05:01:09.531Z,101284.00
2019-04-16T05:04:02.040Z,101282.00
2019-04-16T05:06:32.106Z,101282.00
2019-04-16T05:09:01.557Z,101284.00
2019-04-16T05:11:31.026Z,101290.00
2019-04-16T05:14:00.482Z,101284.00
2019-04-16T05:16:31.536Z,101292.00
2019-04-16T05:19:01.177Z,101295.00
2019-04-16T05:21:30.724Z,101298.00
2019-04-16T05:24:00.235Z,101306.00
2019-04-16T05:26:29.726Z,101310.00
2019-04-16T05:29:00.807Z,101316.00
2019-04-16T05:31:31.219Z,101313.00
2019-04-16T05:34:02.429Z,101324.00
2019-04-16T05:36:32.043Z,101319.00
2019-04-16T05:39:03.655Z,101322.00
2019-04-16T05:41:32.682Z,101329.00
2019-04-16T05:44:02.199Z,101329.00
2019-04-16T05:46:31.645Z,101329.00
2019-04-16T05:49:01.124Z,101332.00
2019-04-16T05:51:31.468Z,101339.00
2019-04-16T05:54:03.230Z,101334.00
2019-04-16T05:56:37.151Z,101339.00
2019-04-16T05:59:06.607Z,101339.00
2019-04-16T06:01:46.603Z,101343.00
2019-04-16T06:04:16.040Z,101344.00
2019-04-16T06:06:45.485Z,101336.00
2019-04-16T06:09:14.971Z,101341.00
2019-04-16T06:11:44.433Z,101339.00
2019-04-16T06:14:21.062Z,101348.00
2019-04-16T06:17:08.544Z,101348.00
2019-04-16T06:19:54.819Z,101342.00
2019-04-16T06:22:30.107Z,101349.00
2019-04-16T06:25:18.131Z,101347.00
2019-04-16T06:27:52.079Z,101346.00
2019-04-16T06:30:33.775Z,101351.00
2019-04-16T06:33:11.211Z,101357.00
2019-04-16T06:35:48.052Z,101349.00
2019-04-16T06:38:19.208Z,101346.00
2019-04-16T06:40:56.271Z,101340.00
2019-04-16T06:43:27.486Z,101352.00
2019-04-16T06:46:08.382Z,101347.00
2019-04-16T06:48:52.227Z,101346.00
2019-04-16T06:51:32.385Z,101344.00
2019-04-16T06:54:06.674Z,101355.00
2019-04-16T06:56:41.107Z,101352.00
2019-04-16T06:59:30.729Z,101349.00
2019-04-16T07:02:02.075Z,101356.00
2019-04-16T07:04:49.289Z,101355.00
2019-04-16T07:07:40.302Z,101348.00
2019-04-16T07:10:11.505Z,101359.00
2019-04-16T07:12:41.049Z,101348.00
2019-04-16T07:15:11.632Z,101352.00
2019-04-16T07:17:41.082Z,101346.00
2019-04-16T07:20:13.450Z,101343.00
2019-04-16T07:22:42.248Z,101341.00
2019-04-16T07:25:11.766Z,101342.00
2019-04-16T07:27:58.955Z,101335.00
2019-04-16T07:30:39.961Z,101334.00
2019-04-16T07:33:27.219Z,101342.00
2019-04-16T07:36:04.655Z,101344.00
2019-04-16T07:38:36.075Z,101341.00
2019-04-16T07:41:12.963Z,101343.00
2019-04-16T07:44:08.118Z,101347.00
2019-04-16T07:46:35.480Z,101340.00
2019-04-16T07:49:26.523Z,101336.00
2019-04-16T07:52:00.599Z,101342.00
2019-04-16T07:54:31.713Z,101329.00
2019-04-16T07:57:01.180Z,101335.00
2019-04-16T07:59:32.232Z,101335.00
2019-04-16T08:02:01.865Z,101339.00
2019-04-16T08:04:35.251Z,101342.00
2019-04-16T08:07:02.531Z,101340.00
2019-04-16T08:09:33.692Z,101333.00
2019-04-16T08:12:03.514Z,101333.00
2019-04-16T08:14:33.041Z,101330.00
2019-04-16T08:17:02.622Z,101329.00
2019-04-16T08:19:37.189Z,101333.00
2019-04-16T08:22:03.458Z,101324.00
2019-04-16T08:24:40.200Z,101333.00
2019-04-16T08:27:10.821Z,101331.00
2019-04-16T08:29:40.398Z,101327.00
2019-04-16T08:32:12.761Z,101320.00
2019-04-16T08:34:41.050Z,101321.00
2019-04-16T08:37:10.532Z,101318.00
2019-04-16T08:39:40.563Z,101319.00
2019-04-16T08:42:10.074Z,101321.00
2019-04-16T08:44:39.544Z,101321.00
2019-04-16T08:47:12.128Z,101297.00
2019-04-16T08:49:40.408Z,101328.00
2019-04-16T08:52:10.979Z,101310.00
2019-04-16T08:54:40.597Z,101310.00
2019-04-16T08:57:10.073Z,101312.00
2019-04-16T08:59:42.604Z,101314.00
2019-04-16T09:02:10.792Z,101315.00
2019-04-16T09:04:40.262Z,101306.00
2019-04-16T09:07:13.139Z,101312.00
2019-04-16T09:09:44.181Z,101296.00
2019-04-16T09:12:13.862Z,101302.00
2019-04-16T09:14:45.179Z,101295.00
2019-04-16T09:17:19.149Z,101305.00
2019-04-16T09:19:52.901Z,101306.00
2019-04-16T09:22:22.349Z,101312.00
2019-04-16T09:25:13.609Z,101304.00
2019-04-16T09:27:42.501Z,101306.00
2019-04-16T09:30:30.467Z,101328.00
2019-04-16T09:33:07.102Z,101309.00
2019-04-16T09:35:47.363Z,101310.00
2019-04-16T09:38:21.019Z,101301.00
2019-04-16T09:41:08.058Z,101309.00
2019-04-16T09:43:40.383Z,101308.00
2019-04-16T09:46:12.933Z,101308.00
2019-04-16T09:48:41.187Z,101298.00
2019-04-16T09:51:10.643Z,101299.00
2019-04-16T09:53:40.948Z,101301.00
2019-04-16T09:56:30.611Z,101306.00
2019-04-16T09:59:07.459Z,101313.00
2019-04-16T10:01:38.955Z,101302.00
2019-04-16T10:04:10.047Z,101296.00
2019-04-16T10:06:39.473Z,101289.00
2019-04-16T10:09:09.157Z,101301.00
2019-04-16T10:11:38.589Z,101299.00
2019-04-16T10:14:08.205Z,101305.00
2019-04-16T10:16:37.869Z,101304.00
2019-04-16T10:19:08.438Z,101302.00
2019-04-16T10:21:40.253Z,101305.00
2019-04-16T10:24:20.043Z,101300.00
2019-04-16T10:26:51.172Z,101292.00
2019-04-16T10:29:22.450Z,101287.00
2019-04-16T10:31:52.707Z,101293.00
2019-04-16T10:34:22.360Z,101296.00
2019-04-16T10:36:51.964Z,101300.00
2019-04-16T10:39:35.014Z,101279.00
2019-04-16T10:42:22.256Z,101277.00
2019-04-16T10:44:56.342Z,101279.00
2019-04-16T10:47:27.792Z,101278.00
2019-04-16T10:50:07.765Z,101289.00
2019-04-16T10:52:56.184Z,101279.00
2019-04-16T10:55:39.820Z,101277.00
2019-04-16T10:58:26.926Z,101276.00
2019-04-16T11:01:06.991Z,101272.00
2019-04-16T11:03:56.307Z,101271.00
2019-04-16T11:06:30.268Z,101280.00
2019-04-16T11:08:59.770Z,101275.00
2019-04-16T11:11:29.288Z,101271.00
2019-04-16T11:14:00.444Z,101260.00
2019-04-16T11:16:29.942Z,101261.00
2019-04-16T11:18:59.389Z,101259.00
2019-04-16T11:21:28.874Z,101263.00
2019-04-16T11:23:58.297Z,101263.00
2019-04-16T11:26:27.827Z,101266.00
2019-04-16T11:28:57.321Z,101252.00
2019-04-16T11:31:27.304Z,101251.00
2019-04-16T11:33:56.779Z,101247.00
2019-04-16T11:36:30.542Z,101261.00
2019-04-16T11:38:57.620Z,101248.00
2019-04-16T11:41:27.073Z,101257.00
2019-04-16T11:43:56.543Z,101243.00
2019-04-16T11:46:26.079Z,101256.00
2019-04-16T11:48:55.540Z,101241.00
2019-04-16T11:51:24.964Z,101255.00
2019-04-16T11:53:54.421Z,101250.00
2019-04-16T11:56:23.905Z,101249.00
2019-04-16T11:58:54.514Z,101258.00
2019-04-16T12:01:29.318Z,101250.00
2019-04-16T12:04:15.238Z,101252.00
2019-04-16T12:07:05.095Z,101251.00
2019-04-16T12:09:34.212Z,101248.00
2019-04-16T12:12:14.108Z,101248.00
2019-04-16T12:14:47.951Z,101242.00
2019-04-16T12:17:24.775Z,101246.00
2019-04-16T12:20:11.412Z,101236.00
2019-04-16T12:22:45.905Z,101232.00
2019-04-16T12:25:20.927Z,101228.00
2019-04-16T12:27:52.049Z,101226.00
2019-04-16T12:30:23.229Z,101225.00
2019-04-16T12:33:08.754Z,101214.00
2019-04-16T12:35:57.358Z,101228.00
2019-04-16T12:38:29.059Z,101211.00
2019-04-16T12:41:00.151Z,101215.00
2019-04-16T12:43:34.303Z,101205.00
2019-04-16T12:46:08.886Z,101219.00
2019-04-16T12:48:40.037Z,101212.00
2019-04-16T12:51:11.078Z,101207.00
2019-04-16T12:53:44.991Z,101202.00
2019-04-16T12:56:32.670Z,101220.00
2019-04-16T12:59:04.026Z,101200.00
2019-04-16T13:01:47.144Z,101197.00
2019-04-16T13:04:18.266Z,101195.00
2019-04-16T13:07:05.768Z,101203.00
2019-04-16T13:09:39.637Z,101200.00
2019-04-16T13:12:27.093Z,101200.00
2019-04-16T13:15:16.415Z,101198.00
2019-04-16T13:17:59.419Z,101197.00
2019-04-16T13:20:33.557Z,101195.00
2019-04-16T13:23:21.105Z,101202.00
2019-04-16T13:25:52.195Z,101199.00
2019-04-16T13:31:09.061Z,101201.00
2019-04-16T13:33:40.114Z,101184.00
2019-04-16T13:36:09.686Z,101188.00
2019-04-16T13:38:43.827Z,101193.00
2019-04-16T13:41:13.435Z,101183.00
2019-04-16T13:43:56.680Z,101187.00
2019-04-16T13:46:29.284Z,101186.00
2019-04-16T13:49:01.589Z,101196.00
2019-04-16T13:51:32.110Z,101193.00
2019-04-16T13:54:09.204Z,101183.00
2019-04-16T13:56:40.357Z,101183.00
2019-04-16T13:59:17.330Z,101187.00
2019-04-16T14:01:54.411Z,101184.00
2019-04-16T14:04:24.022Z,101196.00
2019-04-16T14:06:53.613Z,101191.00
2019-04-16T14:09:23.221Z,101191.00
2019-04-16T14:11:52.826Z,101186.00
2019-04-16T14:14:23.984Z,101181.00
2019-04-16T14:16:53.576Z,101182.00
2019-04-16T14:19:23.180Z,101180.00
2019-04-16T14:21:52.703Z,101176.00
2019-04-16T14:24:22.294Z,101173.00
2019-04-16T14:26:51.902Z,101164.00
2019-04-16T14:29:24.761Z,101158.00
2019-04-16T14:31:52.589Z,101166.00
2019-04-16T14:34:23.722Z,101178.00
2019-04-16T14:36:56.782Z,101170.00
2019-04-16T14:39:31.882Z,101163.00
2019-04-16T14:42:01.412Z,101166.00
2019-04-16T14:44:38.630Z,101166.00
2019-04-16T14:47:08.149Z,101157.00
2019-04-16T14:49:37.620Z,101163.00
2019-04-16T14:52:07.336Z,101157.00
2019-04-16T14:54:54.582Z,101160.00
2019-04-16T14:57:24.145Z,101166.00
2019-04-16T14:59:58.172Z,101161.00
2019-04-16T15:02:31.967Z,101154.00
2019-04-16T15:05:03.327Z,101157.00
2019-04-16T15:07:34.648Z,101147.00
2019-04-16T15:10:23.967Z,101157.00
2019-04-16T15:12:57.528Z,101161.00
2019-04-16T15:15:34.715Z,101169.00
2019-04-16T15:18:18.126Z,101151.00
2019-04-16T15:20:55.980Z,101142.00
2019-04-16T15:23:43.050Z,101147.00
2019-04-16T15:26:29.492Z,101160.00
2019-04-16T15:29:00.704Z,101163.00
2019-04-16T15:31:49.995Z,101165.00
2019-04-16T15:34:24.240Z,101162.00
2019-04-16T15:37:11.896Z,101158.00
2019-04-16T15:39:45.688Z,101154.00
2019-04-16T15:42:25.479Z,101153.00
2019-04-16T15:44:59.735Z,101160.00
2019-04-16T15:47:32.358Z,101153.00
2019-04-16T15:50:06.482Z,101152.00
2019-04-16T15:52:56.972Z,101154.00
2019-04-16T15:55:30.981Z,101148.00
2019-04-16T15:58:20.480Z,101150.00
2019-04-16T16:00:54.958Z,101164.00
2019-04-16T16:03:29.089Z,101166.00
2019-04-16T16:06:00.202Z,101170.00
2019-04-16T16:08:35.834Z,101166.00
2019-04-16T16:11:18.925Z,101170.00
2019-04-16T16:13:48.424Z,101168.00
2019-04-16T16:16:18.963Z,101169.00
2019-04-16T16:18:50.098Z,101176.00
2019-04-16T16:21:21.343Z,101176.00
2019-04-16T16:23:50.820Z,101169.00
2019-04-16T16:26:20.280Z,101164.00
2019-04-16T16:28:49.843Z,101165.00
2019-04-16T16:31:19.330Z,101173.00
2019-04-16T16:33:48.844Z,101170.00
2019-04-16T16:36:18.337Z,101175.00
2019-04-16T16:38:49.251Z,101179.00
2019-04-16T16:41:18.808Z,101178.00
2019-04-16T16:43:48.298Z,101179.00
2019-04-16T16:46:22.031Z,101181.00
2019-04-16T16:48:53.219Z,101189.00
2019-04-16T16:51:23.223Z,101184.00
2019-04-16T16:54:10.701Z,101188.00
2019-04-16T16:56:44.510Z,101183.00
2019-04-16T16:59:27.545Z,101191.00
2019-04-16T17:02:14.809Z,101186.00
2019-04-16T17:04:45.983Z,101190.00
2019-04-16T17:07:17.674Z,101202.00
2019-04-16T17:09:46.831Z,101196.00
2019-04-16T17:12:16.337Z,101192.00
2019-04-16T17:14:45.791Z,101201.00
2019-04-16T17:17:15.423Z,101205.00
2019-04-16T17:19:45.047Z,101200.00
2019-04-16T17:22:17.411Z,101209.00
2019-04-16T17:24:46.075Z,101216.00
2019-04-16T17:27:15.614Z,101207.00
2019-04-16T17:29:46.670Z,101209.00
2019-04-16T17:32:16.353Z,101210.00
2019-04-16T17:34:45.836Z,101222.00
2019-04-16T17:37:15.441Z,101220.00
2019-04-16T17:39:46.591Z,101223.00
2019-04-16T17:42:17.702Z,101229.00
2019-04-16T17:44:55.043Z,101226.00
2019-04-16T17:47:32.636Z,101229.00
2019-04-16T17:50:04.964Z,101244.00
2019-04-16T17:52:36.181Z,101243.00
2019-04-16T17:55:16.893Z,101249.00
2019-04-16T17:58:00.052Z,101246.00
2019-04-16T18:00:43.061Z,101264.00
2019-04-16T18:03:16.647Z,101269.00
2019-04-16T18:05:53.456Z,101270.00
2019-04-16T18:08:40.720Z,101265.00
2019-04-16T18:11:11.832Z,101275.00
2019-04-16T18:13:58.220Z,101275.00
2019-04-16T18:16:29.605Z,101282.00
2019-04-16T18:19:15.920Z,101283.00
2019-04-16T18:21:50.138Z,101290.00
2019-04-16T18:24:21.303Z,101291.00
2019-04-16T18:27:01.348Z,101283.00
2019-04-16T18:29:44.589Z,101300.00
2019-04-16T18:32:23.002Z,101299.00
2019-04-16T18:34:54.142Z,101299.00
2019-04-16T18:37:37.179Z,101306.00
2019-04-16T18:40:18.703Z,101306.00
2019-04-16T18:43:05.831Z,101302.00
2019-04-16T18:45:55.830Z,101303.00
2019-04-16T18:48:34.996Z,101313.00
2019-04-16T18:51:04.606Z,101314.00
2019-04-16T18:53:34.081Z,101318.00
2019-04-16T18:56:03.573Z,101322.00
2019-04-16T18:58:33.070Z,101325.00
2019-04-16T19:01:04.185Z,101322.00
2019-04-16T19:03:33.791Z,101327.00
2019-04-16T19:06:03.436Z,101333.00
2019-04-16T19:08:41.554Z,101331.00
2019-04-16T19:11:04.834Z,101333.00
2019-04-16T19:13:34.436Z,101334.00
2019-04-16T19:16:05.550Z,101336.00
2019-04-16T19:18:35.019Z,101351.00
2019-04-16T19:21:04.524Z,101343.00
2019-04-16T19:23:33.995Z,101348.00
2019-04-16T19:26:05.540Z,101362.00
2019-04-16T19:28:36.263Z,101355.00
2019-04-16T19:31:06.370Z,101351.00
2019-04-16T19:33:38.356Z,101365.00
2019-04-16T19:36:07.159Z,101362.00
2019-04-16T19:38:39.402Z,101371.00
2019-04-16T19:41:07.837Z,101366.00
2019-04-16T19:43:37.384Z,101376.00
2019-04-16T19:46:06.851Z,101373.00
2019-04-16T19:48:36.514Z,101378.00
2019-04-16T19:51:07.206Z,101384.00
2019-04-16T19:53:37.197Z,101380.00
2019-04-16T19:56:06.742Z,101386.00
2019-04-16T19:58:36.212Z,101376.00
2019-04-16T20:01:06.184Z,101385.00
2019-04-16T20:03:35.745Z,101383.00
2019-04-16T20:06:05.855Z,101384.00
2019-04-16T20:08:39.902Z,101387.00
2019-04-16T20:11:06.774Z,101383.00
2019-04-16T20:13:38.352Z,101388.00
2019-04-16T20:16:07.878Z,101388.00
2019-04-16T20:18:50.955Z,101382.00
2019-04-16T20:21:10.853Z,101385.00
2019-04-16T20:23:41.646Z,101391.00
2019-04-16T20:26:11.164Z,101389.00
2019-04-16T20:28:40.650Z,101385.00
2019-04-16T20:31:11.688Z,101385.00
2019-04-16T20:33:41.182Z,101384.00
2019-04-16T20:36:10.658Z,101381.00
2019-04-16T20:38:40.134Z,101388.00
2019-04-16T20:41:10.025Z,101394.00
2019-04-16T20:43:39.507Z,101388.00
2019-04-16T20:46:08.979Z,101384.00
2019-04-16T20:48:38.485Z,101392.00
2019-04-16T20:51:08.553Z,101395.00
2019-04-16T20:53:40.797Z,101390.00
2019-04-16T20:56:10.694Z,101392.00
2019-04-16T20:58:40.411Z,101383.00
2019-04-16T21:01:09.924Z,101397.00
2019-04-16T21:03:39.384Z,101389.00
2019-04-16T21:06:09.625Z,101394.00
2019-04-16T21:08:39.341Z,101399.00
2019-04-16T21:11:09.709Z,101405.00
2019-04-16T21:13:39.326Z,101401.00
2019-04-16T21:16:08.773Z,101409.00
2019-04-16T21:18:38.248Z,101408.00
2019-04-16T21:21:07.957Z,101418.00
2019-04-16T21:23:37.400Z,101415.00
2019-04-16T21:26:06.874Z,101423.00
2019-04-16T21:28:49.961Z,101416.00
2019-04-16T21:31:27.074Z,101425.00
2019-04-16T21:34:16.643Z,101427.00
2019-04-16T21:36:50.703Z,101431.00
2019-04-16T21:39:24.369Z,101438.00
2019-04-16T21:41:53.823Z,101434.00
2019-04-16T21:44:24.879Z,101434.00
2019-04-16T21:46:57.582Z,101436.00
2019-04-16T21:49:37.700Z,101437.00
2019-04-16T21:52:08.461Z,101438.00
2019-04-16T21:54:39.421Z,101443.00
2019-04-16T21:57:13.153Z,101435.00
2019-04-16T21:59:40.127Z,101435.00
2019-04-16T22:02:15.152Z,101428.00
2019-04-16T22:04:45.424Z,101429.00
2019-04-16T22:07:15.542Z,101430.00
2019-04-16T22:09:44.989Z,101433.00
2019-04-16T22:12:15.555Z,101443.00
2019-04-16T22:14:46.001Z,101434.00
2019-04-16T22:17:15.449Z,101445.00
2019-04-16T22:19:53.899Z,101444.00
2019-04-16T22:22:16.120Z,101439.00
2019-04-16T22:24:45.559Z,101442.00
2019-04-16T22:27:15.039Z,101434.00
2019-04-16T22:29:47.319Z,101439.00
2019-04-16T22:32:15.657Z,101453.00
2019-04-16T22:34:45.130Z,101448.00
2019-04-16T22:37:14.589Z,101445.00
2019-04-16T22:39:56.211Z,101450.00
2019-04-16T22:42:29.616Z,101454.00
2019-04-16T22:45:16.794Z,101449.00
2019-04-16T22:47:52.620Z,101447.00
2019-04-16T22:50:22.077Z,101446.00
2019-04-16T22:52:51.589Z,101441.00
2019-04-16T22:55:24.405Z,101446.00
2019-04-16T22:57:52.232Z,101450.00
2019-04-16T23:00:23.416Z,101446.00
2019-04-16T23:02:53.868Z,101450.00
2019-04-16T23:05:23.330Z,101443.00
2019-04-16T23:07:52.821Z,101437.00
2019-04-16T23:10:22.256Z,101444.00
2019-04-16T23:12:51.736Z,101446.00
2019-04-16T23:15:21.172Z,101441.00
2019-04-16T23:17:50.640Z,101445.00
2019-04-16T23:20:29.068Z,101440.00
2019-04-16T23:22:51.283Z,101443.00
2019-04-16T23:25:20.744Z,101447.00
2019-04-16T23:27:50.186Z,101442.00
2019-04-16T23:30:19.651Z,101451.00
2019-04-16T23:32:49.126Z,101443.00
2019-04-16T23:35:18.604Z,101453.00
2019-04-16T23:37:48.045Z,101450.00
2019-04-16T23:40:17.529Z,101447.00
2019-04-16T23:42:54.768Z,101441.00
2019-04-16T23:45:31.419Z,101440.00
2019-04-16T23:48:14.702Z,101452.00
2019-04-16T23:50:45.342Z,101454.00
2019-04-16T23:53:16.071Z,101455.00
2019-04-16T23:55:48.790Z,101452.00
2019-04-16T23:58:28.165Z,101455.00
